Time;durP1;ratioP1;P1;durP2;ratioP2;P2;SDS_P1;SDS_P2;PMS_P1;PMS_P2;Temp;Humidity;BMP_temperature;BMP_pressure;BME280_temperature;BME280_humidity;BME280_pressure;Samples;Min_cycle;Max_cycle;Signal;HPM_P1;HPM_P2
2022/08/23 00:02:06;;;;;;;15.95;5.55;;;;;;;21.25;61.14;100903.38;5074765;28;20053;-57
2022/08/23 00:04:37;;;;;;;14.40;5.05;;;;;;;21.14;61.82;100899.53;5074671;28;20080;-57
2022/08/23 00:07:06;;;;;;;13.13;5.00;;;;;;;21.05;63.07;100898.16;5075197;28;20501;-56
2022/08/23 00:09:32;;;;;;;15.95;5.45;;;;;;;21.03;63.36;100901.06;5074771;28;20337;-56
2022/08/23 00:12:15;;;;;;;16.23;5.43;;;;;;;20.95;63.87;100909.41;5074976;28;20044;-56
2022/08/23 00:14:47;;;;;;;13.32;5.85;;;;;;;20.92;63.09;100899.09;5075046;28;20045;-55
2022/08/23 00:17:15;;;;;;;15.60;5.68;;;;;;;20.90;62.88;100893.91;5071630;28;20049;-57
2022/08/23 00:19:42;;;;;;;12.95;5.57;;;;;;;20.87;63.44;100894.34;5074714;28;20044;-55
2022/08/23 00:22:10;;;;;;;15.55;5.28;;;;;;;20.85;64.21;100895.59;5071041;28;20110;-58
2022/08/23 00:24:37;;;;;;;14.05;5.63;;;;;;;20.83;64.45;100884.19;4953557;28;20379;-57
2022/08/23 00:27:10;;;;;;;15.55;5.38;;;;;;;20.81;64.87;100883.59;5074878;28;20045;-57
2022/08/23 00:32:16;;;;;;;15.20;5.72;;;;;;;20.73;65.13;100881.16;5111353;27;20380;-58
2022/08/23 00:34:43;;;;;;;15.30;5.60;;;;;;;20.61;65.65;100873.78;5110897;28;20101;-57
2022/08/23 00:37:10;;;;;;;15.73;5.40;;;;;;;20.58;66.22;100878.75;5111422;28;20097;-58
2022/08/23 00:39:39;;;;;;;14.48;5.50;;;;;;;20.57;66.03;100879.78;5110864;28;20040;-57
2022/08/23 00:47:50;;;;;;;17.42;5.97;;;;;;;20.51;66.29;100885.00;5110854;28;20131;-57
2022/08/23 00:53:08;;;;;;;16.58;6.43;;;;;;;20.35;67.56;100873.91;5111540;27;20383;-58
2022/08/23 00:55:36;;;;;;;16.02;5.78;;;;;;;20.36;67.54;100880.97;5111150;28;20044;-58
2022/08/23 00:58:03;;;;;;;14.93;6.00;;;;;;;20.32;66.88;100876.00;5111291;28;20048;-58
2022/08/23 01:00:31;;;;;;;17.45;5.88;;;;;;;20.23;66.83;100882.66;5110472;28;20485;-58
2022/08/23 01:03:00;;;;;;;16.83;6.00;;;;;;;20.25;66.65;100877.06;5111086;28;20040;-59
2022/08/23 01:05:37;;;;;;;19.52;6.05;;;;;;;20.28;66.37;100888.25;5110988;28;20474;-59
2022/08/23 01:08:03;;;;;;;18.15;6.32;;;;;;;20.17;66.66;100878.13;5110797;28;20050;-57
2022/08/23 01:10:42;;;;;;;19.42;5.68;;;;;;;20.17;67.67;100888.88;5109332;28;20044;-58
2022/08/23 01:13:15;;;;;;;15.13;6.30;;;;;;;20.20;68.16;100895.72;5111268;28;20406;-58
2022/08/23 01:15:47;;;;;;;13.25;6.30;;;;;;;20.06;68.65;100897.63;5110418;28;20119;-58
2022/08/23 01:18:18;;;;;;;13.25;6.50;;;;;;;20.01;68.86;100897.44;5110687;28;20039;-58
2022/08/23 01:20:57;;;;;;;17.88;6.22;;;;;;;19.98;68.81;100898.72;5110515;28;20051;-58
2022/08/23 01:23:50;;;;;;;19.17;6.95;;;;;;;20.01;68.28;100902.84;4990572;28;20413;-55
2022/08/23 01:26:19;;;;;;;15.07;5.80;;;;;;;20.00;68.59;100907.41;5106883;28;20055;-57
2022/08/23 01:28:46;;;;;;;14.13;6.47;;;;;;;19.97;67.35;100909.69;5109297;28;20048;-58
2022/08/23 01:31:15;;;;;;;15.82;6.10;;;;;;;19.89;65.35;100900.00;5106726;28;20440;-57
2022/08/23 01:33:44;;;;;;;13.85;5.95;;;;;;;19.90;64.79;100909.69;5110248;28;20036;-58
2022/08/23 01:36:16;;;;;;;21.33;6.55;;;;;;;19.97;65.16;100912.38;5110368;28;20051;-58
2022/08/23 01:38:43;;;;;;;15.43;6.40;;;;;;;20.01;65.47;100910.91;5110522;28;20096;-58
2022/08/23 01:41:10;;;;;;;18.38;6.70;;;;;;;19.97;65.33;100905.13;5109778;28;20044;-57
2022/08/23 01:43:37;;;;;;;15.35;6.22;;;;;;;19.99;65.38;100908.44;5110454;28;20044;-58
2022/08/23 01:46:08;;;;;;;14.57;6.07;;;;;;;19.98;64.60;100905.97;5110399;28;20105;-58
2022/08/23 01:48:36;;;;;;;;;;;;;;;19.97;65.33;100912.38;5110707;28;20075;-57
2022/08/23 01:51:04;;;;;;;16.35;5.75;;;;;;;19.92;65.46;100908.47;5109408;28;20007;-57
2022/08/23 01:53:33;;;;;;;12.75;6.03;;;;;;;19.89;65.94;100913.44;5110054;28;20458;-57
2022/08/23 01:56:00;;;;;;;14.45;6.18;;;;;;;19.84;65.47;100913.25;5110302;28;20131;-57
2022/08/23 01:58:32;;;;;;;17.73;6.32;;;;;;;19.79;65.98;100908.47;5109717;28;20047;-57
2022/08/23 02:01:00;;;;;;;14.02;6.18;;;;;;;19.80;65.97;100917.41;5110060;28;20047;-58
2022/08/23 02:03:27;;;;;;;17.70;6.03;;;;;;;19.80;66.17;100912.84;5101111;28;20092;-57
2022/08/23 02:05:55;;;;;;;13.50;6.47;;;;;;;19.71;67.01;100916.75;5095275;28;20048;-57
2022/08/23 02:11:15;;;;;;;13.85;6.60;;;;;;;19.67;66.30;100920.91;5095879;28;20051;-58
2022/08/23 02:13:46;;;;;;;13.45;6.55;;;;;;;19.69;66.10;100924.22;5096227;28;20052;-57
2022/08/23 02:16:23;;;;;;;15.20;6.60;;;;;;;19.63;65.90;100917.81;5096242;28;20044;-58
2022/08/23 02:18:50;;;;;;;17.23;6.28;;;;;;;19.67;65.69;100919.06;5095740;28;20115;-56
2022/08/23 02:21:18;;;;;;;14.15;6.57;;;;;;;19.65;66.31;100913.06;5094719;28;20180;-58
2022/08/23 02:23:45;;;;;;;17.13;7.07;;;;;;;19.61;66.37;100909.13;4969075;28;20059;-56
2022/08/23 02:26:12;;;;;;;15.70;6.80;;;;;;;19.65;66.52;100918.44;5096152;28;20048;-58
2022/08/23 02:28:42;;;;;;;18.35;6.78;;;;;;;19.61;66.80;100922.59;5094678;28;20078;-58
2022/08/23 02:31:09;;;;;;;14.95;7.00;;;;;;;19.58;67.22;100917.63;5095212;28;20048;-58
2022/08/23 02:33:36;;;;;;;15.32;7.05;;;;;;;19.58;67.10;100927.56;5092323;28;20135;-58
2022/08/23 02:36:03;;;;;;;14.65;6.38;;;;;;;19.61;66.63;100929.81;5095816;28;20527;-58
2022/08/23 02:38:31;;;;;;;15.45;6.90;;;;;;;19.52;66.69;100935.44;5092429;28;20123;-56
2022/08/23 02:41:00;;;;;;;15.18;6.60;;;;;;;19.52;66.56;100929.22;5095178;28;20169;-57
2022/08/23 02:43:28;;;;;;;17.52;7.72;;;;;;;19.50;67.02;100933.97;5095769;28;20044;-57
2022/08/23 02:45:56;;;;;;;15.00;6.68;;;;;;;19.46;67.02;100930.88;5095653;28;20397;-56
2022/08/23 02:48:23;;;;;;;17.42;6.38;;;;;;;19.44;66.79;100929.44;5095694;28;20383;-57
2022/08/23 02:51:00;;;;;;;17.08;6.88;;;;;;;19.46;65.78;100932.72;5095108;28;20440;-57
2022/08/23 02:53:27;;;;;;;14.45;6.30;;;;;;;19.49;65.12;100938.53;5095601;28;20068;-57
2022/08/23 02:55:55;;;;;;;17.23;6.20;;;;;;;19.41;65.97;100944.13;5095292;28;20089;-57
2022/08/23 02:58:23;;;;;;;18.05;6.35;;;;;;;19.43;65.25;100935.81;5095512;28;20066;-57
2022/08/23 03:00:50;;;;;;;12.98;6.50;;;;;;;19.48;64.70;100938.72;5095171;28;20050;-56
2022/08/23 03:03:20;;;;;;;15.95;6.40;;;;;;;19.49;64.65;100943.09;5094772;28;20071;-57
2022/08/23 03:05:47;;;;;;;12.93;6.00;;;;;;;19.45;64.84;100941.84;5095079;28;20043;-58
2022/08/23 03:08:15;;;;;;;17.05;6.32;;;;;;;19.45;64.29;100936.47;5094970;28;20152;-57
2022/08/23 03:10:49;;;;;;;14.93;6.15;;;;;;;19.41;63.98;100938.75;5094884;28;20078;-55
2022/08/23 03:13:16;;;;;;;13.95;6.00;;;;;;;19.37;63.74;100937.50;5095171;28;20044;-56
2022/08/23 03:15:44;;;;;;;16.10;6.05;;;;;;;19.31;64.12;100935.66;5093634;28;20136;-57
2022/08/23 03:18:11;;;;;;;16.17;6.28;;;;;;;19.38;64.46;100934.59;5095014;28;20048;-56
2022/08/23 03:20:40;;;;;;;15.80;5.97;;;;;;;19.37;64.29;100943.72;5094756;28;20040;-54
2022/08/23 03:23:09;;;;;;;16.33;6.10;;;;;;;19.34;64.83;100936.06;4965876;28;20045;-59
2022/08/23 03:25:37;;;;;;;19.98;6.35;;;;;;;19.28;64.63;100939.59;5094557;28;20043;-58
2022/08/23 03:28:11;;;;;;;12.00;5.72;;;;;;;19.24;65.68;100941.00;5094876;28;20436;-58
2022/08/23 03:30:42;;;;;;;17.50;6.78;;;;;;;19.21;65.61;100945.97;5094593;28;20052;-58
2022/08/23 03:33:10;;;;;;;12.95;6.50;;;;;;;19.24;65.69;100953.63;5094131;28;20044;-57
2022/08/23 03:35:37;;;;;;;13.57;6.10;;;;;;;19.16;66.74;100947.44;5094399;28;20040;-58
2022/08/23 03:38:06;;;;;;;21.15;6.78;;;;;;;19.21;66.46;100949.50;5094544;28;20131;-57
2022/08/23 03:40:34;;;;;;;14.73;6.68;;;;;;;19.18;66.37;100947.22;5091474;28;20067;-57
2022/08/23 03:43:01;;;;;;;11.75;6.53;;;;;;;19.22;66.92;100955.72;5094551;28;20044;-56
2022/08/23 03:45:29;;;;;;;21.52;6.70;;;;;;;19.16;67.63;100957.34;5094509;28;20050;-58
2022/08/23 03:47:57;;;;;;;18.10;7.22;;;;;;;19.14;67.90;100954.88;5090937;28;20493;-58
2022/08/23 03:50:25;;;;;;;20.50;7.57;;;;;;;19.07;68.01;100961.28;5094367;28;20494;-57
2022/08/23 03:52:52;;;;;;;14.60;7.70;;;;;;;19.02;68.07;100961.88;5093547;28;20040;-57
2022/08/23 03:55:19;;;;;;;13.57;7.28;;;;;;;18.98;68.80;100961.47;5094399;28;20040;-56
2022/08/23 03:57:48;;;;;;;14.30;6.63;;;;;;;19.00;68.68;100958.56;5094218;28;20048;-57
2022/08/23 04:00:16;;;;;;;16.05;7.50;;;;;;;19.01;69.31;100962.94;5094000;28;20048;-56
2022/08/23 04:02:45;;;;;;;16.23;7.93;;;;;;;19.01;69.27;100972.84;5092879;28;20069;-57
2022/08/23 04:05:12;;;;;;;16.75;7.50;;;;;;;18.93;69.23;100973.88;5093533;28;20055;-55
2022/08/23 04:08:05;;;;;;;16.27;7.78;;;;;;;18.87;69.53;100980.06;5093545;28;20571;-57
2022/08/23 04:10:32;;;;;;;15.40;7.47;;;;;;;18.87;70.27;100986.25;5093938;28;20052;-59
2022/08/23 04:12:58;;;;;;;19.50;7.38;;;;;;;18.82;70.11;100987.91;5093901;28;20048;-58
2022/08/23 04:15:25;;;;;;;18.02;7.90;;;;;;;18.94;69.42;100995.16;5093952;28;20044;-58
2022/08/23 04:17:52;;;;;;;20.73;8.63;;;;;;;18.85;70.30;100993.69;5093649;28;20547;-57
2022/08/23 04:20:21;;;;;;;20.92;8.75;;;;;;;18.87;70.61;100998.88;5080449;28;20052;-58
2022/08/23 04:22:55;;;;;;;18.33;7.97;;;;;;;18.85;70.12;100998.25;5019643;28;20147;-58
2022/08/23 04:25:24;;;;;;;18.40;8.10;;;;;;;18.89;70.29;101004.88;5089941;28;20040;-59
2022/08/23 04:27:51;;;;;;;16.23;8.18;;;;;;;18.85;70.81;101001.75;5093520;28;20485;-55
2022/08/23 04:30:19;;;;;;;18.63;8.25;;;;;;;18.84;70.80;101005.47;5092818;28;20044;-58
2022/08/23 04:32:46;;;;;;;20.48;7.80;;;;;;;18.82;70.34;101010.22;5092030;28;20040;-58
2022/08/23 04:35:14;;;;;;;18.50;7.97;;;;;;;18.80;70.80;101007.69;5093526;28;20133;-58
2022/08/23 04:37:41;;;;;;;15.68;8.20;;;;;;;18.81;71.06;101013.94;5091958;28;20055;-56
2022/08/23 04:42:57;;;;;;;19.75;8.75;;;;;;;18.82;71.14;101020.16;5073146;28;20170;-59
2022/08/23 04:45:26;;;;;;;16.85;8.90;;;;;;;18.86;70.76;101024.09;5074287;28;20545;-55
2022/08/23 04:47:53;;;;;;;21.73;8.93;;;;;;;18.84;71.38;101026.97;5071361;28;20044;-58
2022/08/23 04:50:21;;;;;;;19.98;8.85;;;;;;;18.79;71.48;101027.56;5090406;28;20524;-56
2022/08/23 04:53:07;;;;;;;15.57;8.68;;;;;;;18.76;71.48;101040.56;5092676;28;20036;-59
2022/08/23 04:55:41;;;;;;;20.90;8.85;;;;;;;18.77;71.38;101035.00;5089897;28;20498;-56
2022/08/23 04:58:08;;;;;;;18.83;9.15;;;;;;;18.80;71.57;101033.75;5091652;28;20485;-56
2022/08/23 05:00:43;;;;;;;19.33;9.10;;;;;;;18.76;71.42;101033.31;5077973;28;20047;-56
2022/08/23 05:03:12;;;;;;;22.27;9.77;;;;;;;18.81;71.74;101032.75;5073237;28;20041;-56
2022/08/23 05:05:40;;;;;;;21.80;9.77;;;;;;;18.82;71.22;101039.78;5072491;28;20048;-57
2022/08/23 05:08:08;;;;;;;21.52;9.95;;;;;;;18.71;71.79;101040.34;5073219;28;20055;-58
2022/08/23 05:10:35;;;;;;;23.15;9.10;;;;;;;18.75;71.59;101038.91;5076123;28;20060;-57
2022/08/23 05:13:01;;;;;;;23.77;9.93;;;;;;;18.79;71.37;101038.31;5089074;28;20048;-59
2022/08/23 05:15:28;;;;;;;21.63;10.10;;;;;;;18.77;71.57;101035.00;5088261;28;20044;-57
2022/08/23 05:18:02;;;;;;;21.98;10.95;;;;;;;18.70;71.18;101041.34;5073004;28;20586;-56
2022/08/23 05:20:30;;;;;;;24.95;9.93;;;;;;;18.74;71.41;101043.44;5080142;28;20117;-54
2022/08/23 05:22:59;;;;;;;24.55;10.50;;;;;;;18.72;71.41;101045.50;5015096;28;20776;-56
2022/08/23 05:26:02;;;;;;;18.60;9.75;;;;;;;18.75;71.35;101052.34;5080776;28;20060;-57
2022/08/23 05:28:27;;;;;;;20.40;10.15;;;;;;;18.80;71.76;101052.56;5072529;28;20117;-58
2022/08/23 05:30:58;;;;;;;25.08;10.38;;;;;;;18.87;71.41;101053.44;5088395;28;20153;-55
2022/08/23 05:33:27;;;;;;;25.23;11.23;;;;;;;18.88;71.35;101060.50;5083253;28;20043;-56
2022/08/23 05:35:53;;;;;;;25.33;10.82;;;;;;;18.89;71.25;101058.63;5089086;28;20048;-56
2022/08/23 05:38:21;;;;;;;26.98;10.88;;;;;;;18.90;71.43;101060.28;5079322;28;20090;-53
2022/08/23 05:40:51;;;;;;;27.23;11.38;;;;;;;18.92;71.70;101061.75;5081271;28;20120;-56
2022/08/23 05:43:19;;;;;;;22.02;10.40;;;;;;;18.94;71.89;101064.22;5096169;28;20086;-54
2022/08/23 05:45:47;;;;;;;24.48;11.02;;;;;;;18.97;71.55;101069.19;5090731;28;20501;-57
2022/08/23 05:48:14;;;;;;;28.10;10.70;;;;;;;18.97;71.12;101064.66;5094715;28;20055;-57
2022/08/23 05:50:46;;;;;;;27.10;11.07;;;;;;;19.05;71.23;101074.41;5086972;28;20048;-55
2022/08/23 05:53:14;;;;;;;22.83;10.60;;;;;;;19.11;70.44;101075.44;5075516;28;20494;-57
2022/08/23 05:55:43;;;;;;;25.00;10.85;;;;;;;19.10;71.37;101076.47;5075753;28;20068;-53
2022/08/23 05:58:18;;;;;;;22.63;10.35;;;;;;;19.24;71.50;101082.72;5072210;28;20064;-56
2022/08/23 06:00:45;;;;;;;22.83;10.55;;;;;;;19.27;71.48;101083.16;5075644;28;20135;-54
2022/08/23 06:03:12;;;;;;;38.08;11.30;;;;;;;19.32;71.48;101085.25;5079520;28;20074;-57
2022/08/23 06:05:40;;;;;;;29.27;10.70;;;;;;;19.32;70.03;101094.13;5095231;28;20040;-53
2022/08/23 06:08:07;;;;;;;29.10;11.27;;;;;;;19.31;69.59;101088.94;5091489;28;20546;-56
2022/08/23 06:10:36;;;;;;;33.85;11.68;;;;;;;19.40;69.56;101082.34;5093412;28;20051;-55
2022/08/23 06:13:16;;;;;;;28.58;11.50;;;;;;;19.46;68.69;101094.97;5088527;28;20040;-56
2022/08/23 06:15:43;;;;;;;23.42;11.27;;;;;;;19.53;69.23;101093.13;5094260;28;20397;-56
2022/08/23 06:18:13;;;;;;;25.15;11.90;;;;;;;19.64;69.18;101086.31;5094681;28;20401;-55
2022/08/23 06:20:40;;;;;;;23.77;12.18;;;;;;;19.69;68.36;101081.13;5095673;28;20143;-56
2022/08/23 06:23:11;;;;;;;29.90;12.27;;;;;;;19.72;68.21;101083.41;5005345;28;20028;-54
2022/08/23 06:25:39;;;;;;;30.13;11.63;;;;;;;19.81;68.02;101092.16;5095909;28;20082;-56
2022/08/23 06:28:10;;;;;;;33.97;12.40;;;;;;;19.85;68.46;101095.25;5091053;28;20629;-55
2022/08/23 06:30:38;;;;;;;31.50;12.77;;;;;;;19.87;67.81;101095.88;5073904;28;20068;-55
2022/08/23 06:33:15;;;;;;;27.33;12.60;;;;;;;19.97;67.25;101093.59;5075109;28;20540;-55
2022/08/23 06:36:05;;;;;;;34.42;13.88;;;;;;;19.91;66.31;101100.63;5090539;28;20371;-55
2022/08/23 06:38:53;;;;;;;30.23;12.55;;;;;;;19.97;66.47;101098.97;5095057;28;20135;-54
2022/08/23 06:41:39;;;;;;;26.30;11.88;;;;;;;20.08;65.99;101094.81;5075487;28;20098;-55
2022/08/23 06:44:27;;;;;;;22.20;11.30;;;;;;;20.29;65.41;101107.25;5077389;28;20052;-53
2022/08/23 06:47:00;;;;;;;30.83;12.65;;;;;;;20.41;64.28;101107.41;5094275;28;20048;-54
2022/08/23 06:49:27;;;;;;;29.55;12.85;;;;;;;20.49;63.66;101110.72;5095072;28;20040;-54
2022/08/23 06:51:58;;;;;;;27.23;11.80;;;;;;;20.57;63.88;101112.34;5081649;28;20049;-55
2022/08/23 06:54:46;;;;;;;28.27;12.50;;;;;;;20.73;63.14;101115.69;5091007;28;20074;-56
2022/08/23 06:57:23;;;;;;;28.75;13.63;;;;;;;20.80;62.62;101116.47;5094863;28;20039;-55
2022/08/23 07:00:10;;;;;;;32.28;12.57;;;;;;;20.82;62.55;101112.53;5093674;28;20048;-53
2022/08/23 07:02:54;;;;;;;27.48;12.10;;;;;;;20.90;63.06;101112.31;5091872;28;20516;-55
2022/08/23 07:05:41;;;;;;;24.92;13.20;;;;;;;21.02;62.22;101112.44;5079885;28;20045;-54
2022/08/23 07:08:16;;;;;;;34.28;12.32;;;;;;;21.01;62.44;101107.25;5068299;28;20375;-55
2022/08/23 07:10:43;;;;;;;32.53;12.73;;;;;;;20.96;62.66;101110.63;5088380;28;20489;-55
2022/08/23 07:13:09;;;;;;;31.75;13.13;;;;;;;20.97;62.25;101120.34;5094690;28;20036;-55
2022/08/23 07:15:36;;;;;;;31.42;13.70;;;;;;;21.06;62.81;101119.06;5085185;28;20379;-53
2022/08/23 07:18:05;;;;;;;41.47;12.98;;;;;;;21.08;61.59;101121.53;5088683;28;20048;-53
2022/08/23 07:20:32;;;;;;;31.15;13.77;;;;;;;21.20;61.18;101119.00;5084514;28;20135;-53
2022/08/23 07:22:59;;;;;;;37.80;13.90;;;;;;;;;;4958056;28;20575;-53
2022/08/23 07:25:26;;;;;;;36.72;12.95;;;;;;;21.07;61.50;101123.41;5075111;28;20052;-52
2022/08/23 07:27:58;;;;;;;39.05;13.30;;;;;;;21.07;62.54;101122.59;5074596;28;20060;-54
2022/08/23 07:30:24;;;;;;;35.72;14.05;;;;;;;21.10;61.01;101124.84;5073620;28;20530;-54
2022/08/23 07:32:52;;;;;;;29.98;13.27;;;;;;;20.87;61.99;101126.19;5078949;28;20563;-53
2022/08/23 07:35:21;;;;;;;34.80;13.27;;;;;;;20.92;62.83;101128.28;5080911;28;20441;-53
2022/08/23 07:37:49;;;;;;;31.05;14.65;;;;;;;20.99;62.32;101129.06;5083060;28;20086;-53
2022/08/23 07:40:18;;;;;;;37.42;12.52;;;;;;;21.09;62.80;101125.91;5073929;28;20387;-54
2022/08/23 07:42:45;;;;;;;43.90;12.90;;;;;;;21.20;60.19;101122.53;5073956;28;20094;-53
2022/08/23 07:45:11;;;;;;;33.83;13.43;;;;;;;21.20;59.52;101133.31;5076991;28;20497;-54
2022/08/23 07:47:41;;;;;;;26.55;12.73;;;;;;;21.21;59.18;101132.28;5073983;28;20375;-54
2022/08/23 07:50:10;;;;;;;30.08;13.07;;;;;;;21.33;57.53;101137.00;5076295;28;20044;-53
2022/08/23 07:52:37;;;;;;;30.48;11.70;;;;;;;21.39;57.35;101136.97;5091918;28;20048;-54
2022/08/23 07:55:05;;;;;;;25.13;10.75;;;;;;;21.58;56.94;101137.91;5081883;28;20532;-54
2022/08/23 07:57:51;;;;;;;32.40;10.93;;;;;;;21.64;56.46;101133.50;5093853;28;20048;-54
2022/08/23 08:00:33;;;;;;;32.75;10.65;;;;;;;21.74;56.66;101141.97;5091271;28;20048;-54
2022/08/23 08:03:18;;;;;;;22.90;10.18;;;;;;;21.78;57.50;101134.25;5082634;28;20039;-53
2022/08/23 08:06:07;;;;;;;26.52;9.90;;;;;;;21.81;57.01;101126.56;5092507;28;20101;-54
2022/08/23 08:08:34;;;;;;;30.40;10.45;;;;;;;22.17;54.88;101138.50;5091989;28;20044;-56
2022/08/23 08:11:01;;;;;;;31.13;9.32;;;;;;;22.28;53.93;101136.16;5085475;28;20048;-56
2022/08/23 08:13:28;;;;;;;29.45;9.80;;;;;;;22.21;54.92;101134.31;5088906;28;20093;-56
2022/08/23 08:15:55;;;;;;;26.70;10.10;;;;;;;22.24;55.72;101130.34;5095656;28;20105;-56
2022/08/23 08:18:25;;;;;;;28.98;9.10;;;;;;;22.34;55.52;101130.69;5086806;28;20127;-55
2022/08/23 08:21:14;;;;;;;24.30;8.18;;;;;;;22.51;53.07;101130.94;5098478;28;20155;-56
2022/08/23 08:23:57;;;;;;;27.85;8.88;;;;;;;22.71;51.50;101143.41;4999811;28;20039;-56
2022/08/23 08:26:34;;;;;;;24.77;8.02;;;;;;;22.85;51.98;101138.66;5096104;28;20470;-54
2022/08/23 08:29:03;;;;;;;23.73;8.10;;;;;;;22.89;50.65;101137.19;5093670;28;20048;-56
2022/08/23 08:31:33;;;;;;;32.22;8.00;;;;;;;23.02;51.16;101138.91;5092689;28;20044;-55
2022/08/23 08:34:00;;;;;;;27.23;6.95;;;;;;;23.15;50.70;101142.28;5096964;28;20098;-55
2022/08/23 08:36:45;;;;;;;18.38;7.20;;;;;;;23.30;50.11;101141.06;5102210;28;20052;-55
2022/08/23 08:39:20;;;;;;;30.67;7.43;;;;;;;23.40;50.09;101140.53;5092406;28;20067;-56
2022/08/23 08:42:18;;;;;;;26.52;6.78;;;;;;;23.57;49.83;101139.63;5096624;28;20039;-55
2022/08/23 08:44:51;;;;;;;23.17;6.85;;;;;;;23.70;49.02;101141.31;5088946;28;20040;-59
2022/08/23 08:47:46;;;;;;;23.67;7.50;;;;;;;23.91;49.35;101145.38;5080523;28;20490;-55
2022/08/23 08:50:25;;;;;;;21.92;7.28;;;;;;;23.91;48.80;101139.97;5088956;28;20466;-55
2022/08/23 08:53:06;;;;;;;22.83;7.28;;;;;;;24.13;48.04;101147.53;5080961;28;20386;-56
2022/08/23 08:56:22;;;;;;;28.38;7.30;;;;;;;24.23;46.65;101145.09;5092449;28;20044;-56
2022/08/23 08:59:02;;;;;;;27.77;7.28;;;;;;;24.36;47.18;101143.16;5091202;28;20040;-56
2022/08/23 09:01:34;;;;;;;28.27;6.43;;;;;;;24.66;46.67;101149.31;5089547;28;20044;-56
2022/08/23 09:04:01;;;;;;;24.97;6.57;;;;;;;24.70;46.86;101147.78;5077891;28;20139;-56
2022/08/23 09:06:40;;;;;;;22.00;7.70;;;;;;;24.81;46.21;101143.41;5088584;28;20605;-56
2022/08/23 09:09:24;;;;;;;26.77;8.05;;;;;;;24.85;46.91;101144.56;5091519;28;20081;-56
2022/08/23 09:12:19;;;;;;;23.48;7.15;;;;;;;24.88;46.84;101141.38;5093091;28;20074;-56
2022/08/23 09:17:56;;;;;;;35.83;8.73;;;;;;;25.29;45.65;101139.50;5110350;27;20401;-56
2022/08/23 09:20:28;;;;;;;27.02;7.38;;;;;;;25.57;44.09;101142.44;5114088;28;20115;-55
2022/08/23 09:23:07;;;;;;;20.13;7.15;;;;;;;25.53;45.74;101141.28;4980516;28;20493;-55
2022/08/23 09:25:37;;;;;;;32.70;7.43;;;;;;;25.77;43.68;101145.50;5113691;28;20366;-56
2022/08/23 09:28:14;;;;;;;23.80;6.40;;;;;;;25.83;43.95;101146.41;5111651;28;20114;-55
2022/08/23 09:30:58;;;;;;;19.83;6.40;;;;;;;25.85;42.43;101147.00;5110717;28;20043;-55
2022/08/23 09:33:45;;;;;;;32.30;6.63;;;;;;;25.75;42.72;101144.13;5108452;28;20129;-55
2022/08/23 09:36:32;;;;;;;22.02;5.30;;;;;;;26.02;42.45;101147.84;5098712;28;20036;-55
2022/08/23 09:39:03;;;;;;;;;;;;;;;26.08;41.71;101153.38;5104544;28;20048;-57
2022/08/23 09:41:36;;;;;;;18.38;5.30;;;;;;;26.19;41.58;101144.31;5092794;28;19920;-55
2022/08/23 09:44:08;;;;;;;27.58;5.30;;;;;;;26.37;41.01;101144.03;5112340;27;20079;-56
2022/08/23 09:46:38;;;;;;;26.00;9.82;;;;;;;26.91;41.09;101137.16;5109205;28;20078;-56
2022/08/23 09:49:24;;;;;;;19.15;5.53;;;;;;;27.50;39.21;101148.16;5108402;28;20135;-56
2022/08/23 09:51:57;;;;;;;23.40;5.63;;;;;;;27.74;38.75;101145.97;5109184;28;20071;-56
2022/08/23 09:54:32;;;;;;;22.48;6.00;;;;;;;28.25;38.01;101145.56;5110488;28;20050;-56
2022/08/23 09:57:05;;;;;;;16.90;5.13;;;;;;;28.43;37.16;101143.47;5113836;28;20496;-56
2022/08/23 09:59:50;;;;;;;21.88;5.35;;;;;;;28.48;36.91;101147.03;5110124;28;20047;-56
2022/08/23 10:02:30;;;;;;;20.77;5.80;;;;;;;28.84;37.09;101143.72;5110319;28;20128;-56
2022/08/23 10:05:17;;;;;;;15.23;4.25;;;;;;;28.62;35.84;101147.41;5109236;28;20124;-56
2022/08/23 10:07:55;;;;;;;22.92;4.53;;;;;;;28.79;36.27;101139.03;5110223;28;20378;-56
2022/08/23 10:13:05;;;;;;;16.60;4.90;;;;;;;29.00;36.44;101128.22;5098502;27;20428;-56
2022/08/23 10:16:06;;;;;;;24.27;5.22;;;;;;;29.06;36.05;101125.19;5065899;28;20041;-56
2022/08/23 10:19:06;;;;;;;21.90;5.35;;;;;;;29.27;36.71;101136.19;5090244;28;20052;-54
2022/08/23 10:21:50;;;;;;;22.33;4.72;;;;;;;28.79;36.29;101135.50;5073394;28;20052;-54
2022/08/23 10:24:43;;;;;;;20.67;4.43;;;;;;;28.97;36.11;101123.28;5027331;28;20103;-55
2022/08/23 10:29:50;;;;;;;20.13;4.60;;;;;;;29.01;36.69;101130.66;5081028;28;20359;-54
2022/08/23 10:32:50;;;;;;;27.65;5.13;;;;;;;29.12;35.81;101134.22;5070665;28;20124;-52
2022/08/23 10:35:44;;;;;;;22.60;4.88;;;;;;;29.26;36.02;101127.19;5073228;28;20056;-53
2022/08/23 10:38:43;;;;;;;21.83;4.15;;;;;;;29.63;36.58;101131.63;5063622;28;20055;-53
2022/08/23 10:41:50;;;;;;;20.52;4.38;;;;;;;29.34;35.04;101130.47;5077838;28;20390;-52
2022/08/23 10:47:36;;;;;;;22.30;4.85;;;;;;;29.54;35.19;101132.41;5112919;27;20403;-52
2022/08/23 10:50:11;;;;;;;15.05;4.68;;;;;;;29.33;35.65;101128.88;5097195;28;20542;-53
2022/08/23 10:52:49;;;;;;;13.75;4.63;;;;;;;29.52;36.13;101116.28;5106382;28;20119;-52
2022/08/23 10:58:19;;;;;;;19.15;4.90;;;;;;;29.63;34.14;101126.16;5124029;28;20484;-49
2022/08/23 11:00:48;;;;;;;21.92;5.55;;;;;;;29.50;33.10;101117.66;5125285;28;20047;-50
2022/08/23 11:03:28;;;;;;;22.80;4.50;;;;;;;29.21;33.94;101116.25;5130052;27;20058;-54
2022/08/23 11:06:38;;;;;;;17.70;4.85;;;;;;;29.41;34.64;101117.38;5106726;28;20039;-51
2022/08/23 11:12:23;;;;;;;13.23;4.70;;;;;;;29.08;33.72;101116.75;5088494;27;20405;-53
2022/08/23 11:15:10;;;;;;;;;;;;;;;29.33;33.40;101116.00;5089416;28;20127;-52
2022/08/23 11:18:01;;;;;;;16.30;4.93;;;;;;;29.53;33.64;101112.47;5086755;28;19974;-53
2022/08/23 11:20:52;;;;;;;23.90;6.88;;;;;;;29.59;33.99;101108.66;5079774;28;20043;-52
2022/08/23 11:24:00;;;;;;;18.13;6.40;;;;;;;29.37;33.87;101105.38;4971426;28;20097;-53
2022/08/23 11:29:09;;;;;;;24.60;5.70;;;;;;;29.77;32.21;101107.31;5117389;27;20470;-53
2022/08/23 11:31:49;;;;;;;18.27;5.15;;;;;;;29.45;34.19;101102.06;5106142;28;20053;-52
2022/08/23 11:34:29;;;;;;;17.52;5.43;;;;;;;29.76;33.63;101111.16;5090528;28;20055;-54
2022/08/23 11:40:01;;;;;;;18.48;5.40;;;;;;;29.43;33.54;101099.66;5101509;27;20371;-53
2022/08/23 11:45:42;;;;;;;21.40;5.30;;;;;;;29.68;32.61;101100.72;5122857;27;20717;-53
2022/08/23 11:48:17;;;;;;;26.23;4.78;;;;;;;29.98;33.80;101104.56;5099251;28;20043;-55
2022/08/23 11:51:08;;;;;;;24.58;4.90;;;;;;;30.22;31.57;101097.41;5103608;28;20040;-55
2022/08/23 11:53:53;;;;;;;13.75;4.15;;;;;;;30.40;32.12;101098.75;5111231;28;20177;-55
2022/08/23 11:56:41;;;;;;;17.50;4.40;;;;;;;30.30;31.91;101101.47;5098586;28;20084;-55
2022/08/23 11:59:30;;;;;;;21.95;4.63;;;;;;;30.47;32.45;101097.63;5099557;28;20497;-55
2022/08/23 12:01:58;;;;;;;15.40;4.45;;;;;;;30.72;32.34;101103.00;5097601;28;20172;-55
2022/08/23 12:04:37;;;;;;;16.27;4.32;;;;;;;30.87;30.55;101099.38;5100925;28;20058;-54
2022/08/23 12:07:11;;;;;;;15.60;4.25;;;;;;;31.06;31.19;101101.50;5117387;28;20045;-56
2022/08/23 12:12:27;;;;;;;17.27;4.32;;;;;;;30.86;30.52;101097.72;5106463;27;20367;-56
2022/08/23 12:14:59;;;;;;;22.70;4.40;;;;;;;30.70;30.68;101096.97;5099266;28;20044;-54
2022/08/23 12:17:31;;;;;;;17.80;4.20;;;;;;;30.75;32.40;101087.94;5104224;28;20054;-55
2022/08/23 12:20:10;;;;;;;17.98;4.30;;;;;;;30.93;31.59;101081.03;5088177;28;20131;-56
2022/08/23 12:25:36;;;;;;;16.58;4.65;;;;;;;30.55;31.55;101086.94;5114534;27;20689;-55
2022/08/23 12:28:30;;;;;;;19.27;4.40;;;;;;;30.13;32.03;101088.13;5102709;28;20436;-55
2022/08/23 12:31:20;;;;;;;14.38;5.07;;;;;;;30.40;32.75;101081.53;5087688;28;20098;-55
2022/08/23 12:34:07;;;;;;;21.57;4.30;;;;;;;30.38;32.56;101079.06;5102688;28;20052;-55
2022/08/23 12:37:01;;;;;;;15.35;4.25;;;;;;;30.58;32.07;101080.91;5084340;28;20047;-55